Stirling, New Jersey
Current Conditions -  °F | °C
As of 4:45 PM on Monday 24 Nov 2014 (Local Time) from KMMU Reporting Station
Scattered Clouds Scattered Clouds  
Wind Chill: 68°   Ceiling: Unl
Heat Index: 68°   Visibility: 10mi
Dew Point: 55°   Wind: 13mph
Humidity: 64%   Direction: 230°SW
Pressure: 29.63"   Gusts: 22mph
Location:  40.67°N, 74.49°W
Report Text: KMMU 242145Z 23011G19KT 10SM SCT040 20/13 A2963
Loading
Personal Weather Stations






























Interactive Weather Map New forecast layout! Learn more

10-Day Weather Forecast

Advertisements
Track Severe Weather on mobile